createdAt,value
2019-04-26T00:01:35.922Z,13.51
2019-04-26T00:04:05.360Z,13.44
2019-04-26T00:06:34.241Z,13.54
2019-04-26T00:09:23.161Z,13.53
2019-04-26T00:12:06.609Z,13.40
2019-04-26T00:14:57.711Z,13.40
2019-04-26T00:17:30.225Z,13.44
2019-04-26T00:19:59.283Z,13.45
2019-04-26T00:22:27.990Z,13.41
2019-04-26T00:24:56.825Z,13.43
2019-04-26T00:27:25.829Z,13.46
2019-04-26T00:29:54.983Z,13.48
2019-04-26T00:32:23.826Z,13.50
2019-04-26T00:34:52.508Z,13.43
2019-04-26T00:37:21.198Z,13.33
2019-04-26T00:39:49.868Z,13.46
2019-04-26T00:42:19.188Z,13.29
2019-04-26T00:44:47.937Z,13.03
2019-04-26T00:47:17.223Z,12.99
2019-04-26T00:49:46.391Z,13.21
2019-04-26T00:52:17.388Z,13.23
2019-04-26T00:54:47.218Z,13.18
2019-04-26T00:57:18.325Z,13.21
2019-04-26T00:59:48.877Z,13.17
2019-04-26T01:02:23.766Z,12.94
2019-04-26T01:04:52.428Z,12.98
2019-04-26T01:07:21.259Z,13.00
2019-04-26T01:09:49.957Z,12.96
2019-04-26T01:12:19.701Z,12.87
2019-04-26T01:14:48.774Z,12.97
2019-04-26T01:17:18.645Z,12.82
2019-04-26T01:19:48.703Z,12.67
2019-04-26T01:22:23.395Z,12.64
2019-04-26T01:24:55.221Z,12.73
2019-04-26T01:27:25.543Z,12.60
2019-04-26T01:29:57.514Z,12.58
2019-04-26T01:32:28.342Z,12.55
2019-04-26T01:34:57.936Z,12.49
2019-04-26T01:37:27.418Z,12.40
2019-04-26T01:40:01.205Z,12.30
2019-04-26T01:42:51.435Z,12.15
2019-04-26T01:45:32.383Z,12.05
2019-04-26T01:48:07.490Z,11.92
2019-04-26T01:50:37.010Z,11.93
2019-04-26T01:53:06.546Z,11.80
2019-04-26T01:55:35.297Z,11.67
2019-04-26T01:58:06.690Z,11.68
2019-04-26T02:00:49.648Z,11.54
2019-04-26T02:03:25.592Z,11.63
2019-04-26T02:05:54.783Z,11.64
2019-04-26T02:08:24.546Z,11.61
2019-04-26T02:10:53.336Z,11.63
2019-04-26T02:13:24.833Z,11.90
2019-04-26T02:15:53.461Z,11.78
2019-04-26T02:18:23.941Z,11.79
2019-04-26T02:21:21.884Z,11.65
2019-04-26T02:24:24.822Z,11.75
2019-04-26T02:26:54.788Z,11.56
2019-04-26T02:29:27.100Z,11.66
2019-04-26T02:31:59.643Z,11.77
2019-04-26T02:34:31.749Z,11.46
2019-04-26T02:37:04.162Z,11.46
2019-04-26T02:39:35.401Z,11.57
2019-04-26T02:42:08.185Z,11.51
2019-04-26T02:44:46.608Z,11.33
2019-04-26T02:47:41.377Z,11.29
2019-04-26T02:50:17.083Z,11.39
2019-04-26T02:52:58.352Z,11.41
2019-04-26T02:56:05.701Z,11.60
2019-04-26T02:58:41.953Z,11.36
2019-04-26T03:01:11.519Z,11.52
2019-04-26T03:03:40.821Z,11.45
2019-04-26T03:06:10.136Z,11.61
2019-04-26T03:08:40.440Z,11.50
2019-04-26T03:11:17.241Z,11.52
2019-04-26T03:14:05.709Z,11.13
2019-04-26T03:16:46.006Z,11.13
2019-04-26T03:19:28.400Z,11.04
2019-04-26T03:22:27.024Z,11.07
2019-04-26T03:25:06.951Z,11.15
2019-04-26T03:27:47.007Z,11.10
2019-04-26T03:30:26.900Z,11.14
2019-04-26T03:33:36.203Z,10.89
2019-04-26T03:36:45.684Z,10.80
2019-04-26T03:39:32.931Z,10.80
2019-04-26T03:42:23.646Z,10.79
2019-04-26T03:45:00.584Z,10.73
2019-04-26T03:47:34.217Z,10.81
2019-04-26T03:50:17.169Z,10.84
2019-04-26T03:53:19.103Z,10.84
2019-04-26T03:56:42.375Z,10.76
2019-04-26T03:59:30.975Z,10.83
2019-04-26T04:02:19.040Z,10.82
2019-04-26T04:04:59.333Z,10.68
2019-04-26T04:07:39.042Z,10.64
2019-04-26T04:10:10.830Z,10.51
2019-04-26T04:12:47.758Z,10.51
2019-04-26T04:15:23.289Z,10.49
2019-04-26T04:18:02.058Z,10.54
2019-04-26T04:21:12.676Z,10.46
2019-04-26T04:24:09.117Z,10.35
2019-04-26T04:27:27.896Z,10.18
2019-04-26T04:30:08.115Z,10.16
2019-04-26T04:33:16.030Z,9.96
2019-04-26T04:35:50.799Z,9.96
2019-04-26T04:38:35.852Z,10.00
2019-04-26T04:41:22.270Z,10.07
2019-04-26T04:44:02.956Z,10.13
2019-04-26T04:47:22.282Z,10.27
2019-04-26T04:50:14.945Z,10.46
2019-04-26T04:52:53.570Z,10.59
2019-04-26T04:55:33.003Z,10.55
2019-04-26T04:58:08.504Z,10.53
2019-04-26T05:01:42.863Z,10.62
2019-04-26T05:04:21.069Z,10.49
2019-04-26T05:07:24.826Z,10.48
2019-04-26T05:10:17.421Z,10.43
2019-04-26T05:12:58.865Z,10.43
2019-04-26T05:16:17.523Z,10.40
2019-04-26T05:19:30.388Z,10.43
2019-04-26T05:22:11.808Z,10.50
2019-04-26T05:25:03.694Z,10.57
2019-04-26T05:27:57.246Z,10.67
2019-04-26T05:31:12.193Z,10.64
2019-04-26T05:34:10.452Z,10.73
2019-04-26T05:37:00.151Z,10.73
2019-04-26T05:39:49.206Z,10.69
2019-04-26T05:42:33.836Z,10.81
2019-04-26T05:45:35.545Z,10.85
2019-04-26T05:48:31.171Z,10.91
2019-04-26T05:51:33.684Z,10.92
2019-04-26T05:54:44.726Z,10.99
2019-04-26T05:57:42.038Z,11.23
2019-04-26T06:00:30.294Z,11.11
2019-04-26T06:04:04.203Z,11.09
2019-04-26T06:06:41.317Z,11.18
2019-04-26T06:10:03.510Z,11.27
2019-04-26T06:12:43.471Z,11.14
2019-04-26T06:15:43.540Z,11.30
2019-04-26T06:18:36.079Z,11.27
2019-04-26T06:21:16.886Z,11.24
2019-04-26T06:24:06.093Z,11.28
2019-04-26T06:27:11.895Z,11.26
2019-04-26T06:29:43.399Z,11.25
2019-04-26T06:32:20.025Z,11.24
2019-04-26T06:35:01.454Z,11.17
2019-04-26T06:37:55.348Z,11.17
2019-04-26T06:40:48.560Z,11.14
2019-04-26T06:43:26.727Z,11.17
2019-04-26T06:46:39.136Z,11.17
2019-04-26T06:49:18.770Z,11.22
2019-04-26T06:51:52.610Z,11.27
2019-04-26T06:54:32.165Z,11.05
2019-04-26T06:57:33.214Z,11.05
2019-04-26T07:00:17.090Z,11.00
2019-04-26T07:02:58.946Z,11.02
2019-04-26T07:05:30.515Z,11.18
2019-04-26T07:08:57.316Z,11.28
2019-04-26T07:12:03.850Z,11.21
2019-04-26T07:15:29.940Z,11.21
2019-04-26T07:18:11.129Z,11.25
2019-04-26T07:20:53.939Z,11.39
2019-04-26T07:23:59.970Z,11.48
2019-04-26T07:26:57.378Z,11.55
2019-04-26T07:30:12.652Z,11.55
2019-04-26T07:33:15.283Z,11.61
2019-04-26T07:36:15.175Z,11.66
2019-04-26T07:42:58.476Z,11.25
2019-04-26T07:46:01.355Z,11.25
2019-04-26T07:49:01.701Z,11.37
2019-04-26T07:52:12.613Z,11.41
2019-04-26T07:55:23.649Z,11.47
2019-04-26T07:58:41.365Z,11.41
2019-04-26T08:01:28.299Z,11.41
2019-04-26T08:04:05.310Z,11.58
2019-04-26T08:07:15.758Z,11.63
2019-04-26T08:09:59.994Z,11.51
2019-04-26T08:12:25.247Z,11.44
2019-04-26T08:15:17.753Z,11.45
2019-04-26T08:18:01.153Z,11.68
2019-04-26T08:20:51.843Z,11.85
2019-04-26T08:23:39.476Z,11.80
2019-04-26T08:26:05.123Z,11.79
2019-04-26T08:28:38.589Z,11.63
2019-04-26T08:31:10.909Z,11.76
2019-04-26T08:33:48.704Z,11.84
2019-04-26T08:36:23.284Z,11.96
2019-04-26T08:38:52.614Z,12.00
2019-04-26T08:41:24.819Z,11.88
2019-04-26T08:44:14.456Z,11.98
2019-04-26T08:47:02.264Z,11.99
2019-04-26T08:49:56.836Z,11.78
2019-04-26T08:52:30.400Z,11.74
2019-04-26T08:55:01.044Z,11.77
2019-04-26T08:57:33.063Z,11.87
2019-04-26T09:00:03.926Z,11.63
2019-04-26T09:02:52.959Z,11.69
2019-04-26T09:05:45.648Z,11.79
2019-04-26T09:08:16.948Z,11.82
2019-04-26T09:10:49.087Z,11.96
2019-04-26T09:13:20.232Z,11.94
2019-04-26T09:16:05.296Z,11.91
2019-04-26T09:18:43.237Z,11.91
2019-04-26T09:21:05.586Z,12.19
2019-04-26T09:23:53.369Z,12.34
2019-04-26T09:26:33.638Z,12.30
2019-04-26T09:29:20.521Z,12.33
2019-04-26T09:31:54.482Z,12.17
2019-04-26T09:34:21.999Z,12.28
2019-04-26T09:36:50.817Z,12.36
2019-04-26T09:39:21.182Z,12.28
2019-04-26T09:41:50.149Z,12.31
2019-04-26T09:44:32.970Z,12.15
2019-04-26T09:47:19.176Z,12.20
2019-04-26T09:50:03.838Z,12.33
2019-04-26T09:52:38.962Z,12.31
2019-04-26T09:55:08.399Z,12.27
2019-04-26T09:57:37.368Z,12.33
2019-04-26T10:00:10.299Z,12.23
2019-04-26T10:02:40.880Z,12.10
2019-04-26T10:05:12.049Z,12.13
2019-04-26T10:07:41.317Z,11.97
2019-04-26T10:10:22.262Z,11.89
2019-04-26T10:13:08.391Z,11.95
2019-04-26T10:16:02.925Z,12.05
2019-04-26T10:18:33.811Z,12.10
2019-04-26T10:21:05.157Z,12.23
2019-04-26T10:23:33.949Z,12.20
2019-04-26T10:26:02.814Z,12.15
2019-04-26T10:28:31.840Z,11.90
2019-04-26T10:31:00.737Z,11.84
2019-04-26T10:33:32.624Z,11.72
2019-04-26T10:36:00.161Z,11.67
2019-04-26T10:38:28.879Z,11.74
2019-04-26T10:40:57.620Z,11.70
2019-04-26T10:43:29.254Z,11.78
2019-04-26T10:45:57.010Z,11.45
2019-04-26T10:48:25.769Z,11.19
2019-04-26T10:50:54.571Z,11.19
2019-04-26T10:53:37.233Z,11.17
2019-04-26T10:56:28.552Z,11.13
2019-04-26T10:59:31.637Z,11.23
2019-04-26T11:01:59.694Z,11.22
2019-04-26T11:04:28.388Z,11.40
2019-04-26T11:06:58.095Z,11.43
2019-04-26T11:09:27.925Z,11.41
2019-04-26T11:11:56.978Z,11.21
2019-04-26T11:14:26.008Z,11.14
2019-04-26T11:16:55.186Z,11.04
2019-04-26T11:19:24.589Z,10.98
2019-04-26T11:21:54.850Z,10.90
2019-04-26T11:24:24.201Z,10.80
2019-04-26T11:26:52.894Z,10.69
2019-04-26T11:29:24.980Z,10.93
2019-04-26T11:31:54.149Z,10.74
2019-04-26T11:34:23.649Z,10.67
2019-04-26T11:36:53.213Z,10.60
2019-04-26T11:39:22.585Z,10.49
2019-04-26T11:41:51.647Z,10.49
2019-04-26T11:44:23.343Z,10.63
2019-04-26T11:46:51.330Z,10.56
2019-04-26T11:49:20.033Z,10.66
2019-04-26T11:51:48.769Z,10.62
2019-04-26T11:54:20.844Z,10.35
2019-04-26T11:56:50.309Z,10.35
2019-04-26T11:59:19.331Z,10.42
2019-04-26T12:01:48.046Z,10.42
2019-04-26T12:04:36.090Z,10.49
2019-04-26T12:07:11.063Z,10.49
2019-04-26T12:09:42.532Z,10.49
2019-04-26T12:12:13.063Z,10.36
2019-04-26T12:14:42.251Z,10.41
2019-04-26T12:17:10.956Z,10.43
2019-04-26T12:19:39.971Z,10.27
2019-04-26T12:22:09.982Z,10.27
2019-04-26T12:24:38.723Z,10.25
2019-04-26T12:27:10.245Z,10.25
2019-04-26T12:29:38.238Z,10.18
2019-04-26T12:32:10.078Z,10.21
2019-04-26T12:34:39.809Z,10.18
2019-04-26T12:37:08.594Z,10.28
2019-04-26T12:39:38.290Z,10.40
2019-04-26T12:42:08.267Z,10.42
2019-04-26T12:45:00.471Z,10.25
2019-04-26T12:47:38.626Z,10.25
2019-04-26T12:50:05.996Z,10.26
2019-04-26T12:52:37.365Z,10.25
2019-04-26T12:55:06.076Z,10.39
2019-04-26T12:57:36.481Z,10.32
2019-04-26T13:00:06.212Z,10.33
2019-04-26T13:02:34.918Z,10.45
2019-04-26T13:05:03.690Z,10.58
2019-04-26T13:07:32.386Z,10.63
2019-04-26T13:10:18.986Z,10.52
2019-04-26T13:12:55.158Z,10.62
2019-04-26T13:16:14.199Z,10.62
2019-04-26T13:18:45.315Z,10.49
2019-04-26T13:21:13.625Z,10.65
2019-04-26T13:23:42.322Z,10.61
2019-04-26T13:26:11.400Z,10.61
2019-04-26T13:28:40.519Z,10.59
2019-04-26T13:31:09.330Z,10.56
2019-04-26T13:33:38.379Z,10.80
2019-04-26T13:36:07.082Z,10.74
2019-04-26T13:38:39.303Z,10.70
2019-04-26T13:41:06.947Z,10.86
2019-04-26T13:43:35.622Z,10.82
2019-04-26T13:46:26.310Z,10.99
2019-04-26T13:49:07.379Z,11.02
2019-04-26T13:51:36.071Z,10.78
2019-04-26T13:54:05.260Z,10.67
2019-04-26T13:56:35.998Z,10.53
2019-04-26T13:59:04.793Z,10.63
2019-04-26T14:01:33.754Z,10.71
2019-04-26T14:04:07.027Z,10.78
2019-04-26T14:06:33.535Z,10.77
2019-04-26T14:09:02.984Z,10.72
2019-04-26T14:11:32.181Z,10.85
2019-04-26T14:14:01.869Z,10.81
2019-04-26T14:16:30.806Z,10.78
2019-04-26T14:18:59.575Z,10.65
2019-04-26T14:21:32.682Z,10.71
2019-04-26T14:24:19.679Z,10.65
2019-04-26T14:26:51.128Z,10.65
2019-04-26T14:29:20.326Z,10.50
2019-04-26T14:31:51.402Z,10.42
2019-04-26T14:34:19.450Z,10.33
2019-04-26T14:36:48.250Z,10.33
2019-04-26T14:39:19.587Z,10.34
2019-04-26T14:41:47.869Z,10.34
2019-04-26T14:44:16.562Z,10.38
2019-04-26T14:46:48.942Z,10.33
2019-04-26T14:49:19.132Z,10.26
2019-04-26T14:51:51.211Z,10.18
2019-04-26T14:54:18.259Z,10.27
2019-04-26T14:56:52.400Z,10.31
2019-04-26T14:59:39.452Z,10.48
2019-04-26T15:02:30.477Z,10.50
2019-04-26T15:05:18.187Z,10.47
2019-04-26T15:07:50.765Z,10.41
2019-04-26T15:10:19.115Z,10.46
2019-04-26T15:12:52.700Z,10.46
2019-04-26T15:15:18.583Z,10.46
2019-04-26T15:17:47.353Z,10.47
2019-04-26T15:20:16.792Z,10.53
2019-04-26T15:22:48.812Z,10.54
2019-04-26T15:25:17.623Z,10.58
2019-04-26T15:27:46.557Z,10.64
2019-04-26T15:30:15.336Z,10.73
2019-04-26T15:32:47.132Z,10.83
2019-04-26T15:35:18.258Z,10.90
2019-04-26T15:37:47.278Z,10.79
2019-04-26T15:40:34.982Z,10.81
2019-04-26T15:43:23.799Z,10.79
2019-04-26T15:46:13.590Z,10.69
2019-04-26T15:49:04.683Z,10.71
2019-04-26T15:51:32.601Z,10.84
2019-04-26T15:54:01.562Z,10.76
2019-04-26T15:56:32.478Z,10.67
2019-04-26T15:59:02.578Z,10.68
2019-04-26T16:01:32.565Z,10.67
2019-04-26T16:04:05.796Z,10.73
2019-04-26T16:06:33.081Z,10.69
2019-04-26T16:09:02.397Z,10.71
2019-04-26T16:11:31.602Z,10.92
2019-04-26T16:14:02.108Z,10.84
2019-04-26T16:16:34.160Z,10.79
2019-04-26T16:19:02.962Z,10.84
2019-04-26T16:21:32.351Z,10.89
2019-04-26T16:24:02.766Z,10.86
2019-04-26T16:26:32.917Z,10.83
2019-04-26T16:29:19.764Z,10.90
2019-04-26T16:32:00.508Z,10.93
2019-04-26T16:34:29.493Z,10.80
2019-04-26T16:36:58.447Z,10.67
2019-04-26T16:39:32.331Z,10.77
2019-04-26T16:41:59.390Z,10.75
2019-04-26T16:44:31.319Z,10.79
2019-04-26T16:47:03.635Z,10.81
2019-04-26T16:49:35.100Z,10.82
2019-04-26T16:52:06.601Z,10.85
2019-04-26T16:54:34.260Z,10.81
2019-04-26T16:57:06.285Z,10.79
2019-04-26T16:59:32.923Z,10.69
2019-04-26T17:02:02.735Z,10.71
2019-04-26T17:04:35.089Z,10.68
2019-04-26T17:07:04.873Z,10.68
2019-04-26T17:09:54.396Z,10.74
2019-04-26T17:12:03.251Z,10.71
2019-04-26T17:14:34.155Z,10.71
2019-04-26T17:17:07.444Z,10.74
2019-04-26T17:19:37.491Z,10.71
2019-04-26T17:22:44.474Z,10.75
2019-04-26T17:25:17.037Z,10.74
2019-04-26T17:27:47.193Z,10.65
2019-04-26T17:30:20.514Z,10.67
2019-04-26T17:32:51.547Z,10.66
2019-04-26T17:35:19.623Z,10.64
2019-04-26T17:37:48.318Z,10.64
2019-04-26T17:40:17.004Z,10.71
2019-04-26T17:42:45.680Z,10.67
2019-04-26T17:45:14.875Z,10.67
2019-04-26T17:47:43.565Z,10.62
2019-04-26T17:50:12.763Z,10.64
2019-04-26T17:52:44.250Z,10.64
2019-04-26T17:55:14.828Z,10.62
2019-04-26T17:57:48.410Z,10.60
2019-04-26T18:00:20.799Z,10.61
2019-04-26T18:02:50.925Z,10.62
2019-04-26T18:05:24.495Z,10.60
2019-04-26T18:07:58.222Z,10.58
2019-04-26T18:10:20.862Z,10.56
2019-04-26T18:12:50.794Z,10.51
2019-04-26T18:15:19.846Z,10.52
2019-04-26T18:18:14.452Z,10.55
2019-04-26T18:20:58.812Z,10.56
2019-04-26T18:23:30.347Z,10.55
2019-04-26T18:25:58.560Z,10.68
2019-04-26T18:28:27.499Z,10.72
2019-04-26T18:30:56.550Z,10.76
2019-04-26T18:33:26.103Z,10.73
2019-04-26T18:35:57.437Z,10.70
2019-04-26T18:38:25.382Z,10.59
2019-04-26T18:41:00.929Z,10.59
2019-04-26T18:43:25.142Z,10.55
2019-04-26T18:45:58.567Z,10.48
2019-04-26T18:48:26.397Z,10.47
2019-04-26T18:50:55.455Z,10.58
2019-04-26T18:53:40.568Z,10.68
2019-04-26T18:56:09.821Z,10.68
2019-04-26T18:58:38.598Z,10.68
2019-04-26T19:01:09.271Z,10.65
2019-04-26T19:03:40.823Z,10.60
2019-04-26T19:06:09.605Z,10.40
2019-04-26T19:08:47.674Z,10.37
2019-04-26T19:11:11.723Z,10.39
2019-04-26T19:13:56.372Z,10.28
2019-04-26T19:16:46.420Z,10.22
2019-04-26T19:19:31.605Z,10.26
2019-04-26T19:22:03.327Z,10.21
2019-04-26T19:24:31.296Z,10.33
2019-04-26T19:26:59.923Z,10.36
2019-04-26T19:29:33.579Z,10.33
2019-04-26T19:32:01.565Z,10.30
2019-04-26T19:34:30.303Z,10.31
2019-04-26T19:37:01.616Z,10.27
2019-04-26T19:39:35.061Z,10.20
2019-04-26T19:42:02.483Z,10.23
2019-04-26T19:44:31.672Z,10.16
2019-04-26T19:47:25.996Z,10.16
2019-04-26T19:50:09.605Z,10.13
2019-04-26T19:52:53.736Z,10.17
2019-04-26T19:55:51.420Z,10.13
2019-04-26T19:58:22.807Z,10.16
2019-04-26T20:00:52.417Z,10.21
2019-04-26T20:03:21.553Z,10.21
2019-04-26T20:05:50.342Z,10.27
2019-04-26T20:08:19.446Z,10.28
2019-04-26T20:10:48.450Z,10.30
2019-04-26T20:13:17.389Z,10.25
2019-04-26T20:15:46.677Z,10.30
2019-04-26T20:18:17.457Z,10.31
2019-04-26T20:20:46.096Z,10.31
2019-04-26T20:23:14.848Z,10.29
2019-04-26T20:25:44.037Z,10.28
2019-04-26T20:28:14.069Z,10.27
2019-04-26T20:31:05.926Z,10.31
2019-04-26T20:33:34.928Z,10.45
2019-04-26T20:36:04.776Z,10.42
2019-04-26T20:38:42.139Z,10.39
2019-04-26T20:41:03.898Z,10.28
2019-04-26T20:43:36.802Z,10.21
2019-04-26T20:46:14.049Z,10.18
2019-04-26T20:48:34.167Z,10.18
2019-04-26T20:51:06.601Z,10.18
2019-04-26T20:53:39.990Z,10.26
2019-04-26T20:56:09.907Z,10.25
2019-04-26T20:58:37.531Z,10.22
2019-04-26T21:01:10.975Z,10.13
2019-04-26T21:03:41.887Z,10.18
2019-04-26T21:06:07.935Z,10.16
2019-04-26T21:08:36.936Z,10.20
2019-04-26T21:11:06.022Z,10.28
2019-04-26T21:13:34.959Z,10.16
2019-04-26T21:16:10.612Z,10.14
2019-04-26T21:18:39.976Z,10.05
2019-04-26T21:21:05.933Z,10.07
2019-04-26T21:23:39.987Z,10.00
2019-04-26T21:26:16.669Z,10.00
2019-04-26T21:28:51.980Z,9.93
2019-04-26T21:31:40.923Z,9.91
2019-04-26T21:34:34.497Z,9.85
2019-04-26T21:37:22.030Z,9.84
2019-04-26T21:40:08.152Z,9.89
2019-04-26T21:42:36.841Z,9.92
2019-04-26T21:45:06.839Z,9.90
2019-04-26T21:47:37.239Z,9.79
2019-04-26T21:50:06.381Z,9.75
2019-04-26T21:52:35.362Z,9.76
2019-04-26T21:55:07.453Z,9.78
2019-04-26T21:57:36.897Z,9.88
2019-04-26T22:00:09.257Z,9.78
2019-04-26T22:02:38.103Z,9.84
2019-04-26T22:05:07.949Z,9.95
2019-04-26T22:07:39.535Z,9.86
2019-04-26T22:10:17.422Z,9.86
2019-04-26T22:12:46.121Z,9.80
2019-04-26T22:15:35.806Z,9.76
2019-04-26T22:18:10.307Z,9.82
2019-04-26T22:20:44.818Z,9.89
2019-04-26T22:23:51.699Z,9.89
2019-04-26T22:26:19.807Z,9.87
2019-04-26T22:28:53.382Z,9.86
2019-04-26T22:31:25.175Z,9.78
2019-04-26T22:33:56.008Z,9.78
2019-04-26T22:36:27.462Z,9.71
2019-04-26T22:39:01.354Z,9.70
2019-04-26T22:41:28.477Z,9.70
2019-04-26T22:44:24.839Z,9.70
2019-04-26T22:47:10.978Z,9.63
2019-04-26T22:49:41.726Z,9.61
2019-04-26T22:52:15.719Z,9.61
2019-04-26T22:54:44.699Z,9.63
2019-04-26T22:57:15.191Z,9.67
2019-04-26T22:59:49.572Z,9.67
2019-04-26T23:02:18.387Z,9.64
2019-04-26T23:04:45.223Z,9.69
2019-04-26T23:07:18.372Z,9.67
2019-04-26T23:09:51.897Z,9.72
2019-04-26T23:12:34.457Z,9.70
2019-04-26T23:15:24.021Z,9.67
2019-04-26T23:18:15.957Z,9.56
2019-04-26T23:20:57.237Z,9.56
2019-04-26T23:23:26.230Z,9.56
2019-04-26T23:25:54.914Z,9.45
2019-04-26T23:28:27.636Z,9.32
2019-04-26T23:30:54.363Z,9.26
2019-04-26T23:33:23.951Z,9.30
2019-04-26T23:35:53.238Z,9.34
2019-04-26T23:38:23.471Z,9.38
2019-04-26T23:40:52.240Z,9.35
2019-04-26T23:43:24.030Z,9.35
2019-04-26T23:45:52.766Z,9.34
2019-04-26T23:48:22.288Z,9.38
2019-04-26T23:50:50.955Z,9.37
2019-04-26T23:53:20.536Z,9.37
2019-04-26T23:55:50.057Z,9.39
2019-04-26T23:58:18.754Z,9.38
